sensor_id;sensor_type;location;lat;lon;timestamp;pressure;altitude;pressure_sealevel;temperature;humidity
34925;BME280;21130;51.728;8.748;2023-05-12T00:00:21;100377.06;;;10.65;100.00
34925;BME280;21130;51.728;8.748;2023-05-12T00:02:47;100378.19;;;10.64;100.00
34925;BME280;21130;51.728;8.748;2023-05-12T00:05:14;100371.44;;;10.59;100.00
34925;BME280;21130;51.728;8.748;2023-05-12T00:07:41;100375.53;;;10.57;100.00
34925;BME280;21130;51.728;8.748;2023-05-12T00:10:08;100369.66;;;10.53;100.00
34925;BME280;21130;51.728;8.748;2023-05-12T00:12:36;100364.34;;;10.52;100.00
34925;BME280;21130;51.728;8.748;2023-05-12T00:15:04;100367.63;;;10.49;100.00
34925;BME280;21130;51.728;8.748;2023-05-12T00:17:30;100365.19;;;10.52;100.00
34925;BME280;21130;51.728;8.748;2023-05-12T00:19:56;100376.78;;;10.49;100.00
34925;BME280;21130;51.728;8.748;2023-05-12T00:22:23;100369.19;;;10.45;100.00
34925;BME280;21130;51.728;8.748;2023-05-12T00:24:50;100373.31;;;10.42;100.00
34925;BME280;21130;51.728;8.748;2023-05-12T00:27:17;100369.94;;;10.40;100.00
34925;BME280;21130;51.728;8.748;2023-05-12T00:29:45;100370.44;;;10.37;100.00
34925;BME280;21130;51.728;8.748;2023-05-12T00:32:11;100370.34;;;10.32;100.00
34925;BME280;21130;51.728;8.748;2023-05-12T00:34:37;100375.53;;;10.28;100.00
34925;BME280;21130;51.728;8.748;2023-05-12T00:37:04;100371.31;;;10.26;100.00
34925;BME280;21130;51.728;8.748;2023-05-12T00:39:30;100377.81;;;10.20;100.00
34925;BME280;21130;51.728;8.748;2023-05-12T00:41:58;100373.84;;;10.15;100.00
34925;BME280;21130;51.728;8.748;2023-05-12T00:44:24;100375.16;;;10.13;100.00
34925;BME280;21130;51.728;8.748;2023-05-12T00:46:52;100384.25;;;10.08;100.00
34925;BME280;21130;51.728;8.748;2023-05-12T00:49:19;100378.59;;;10.03;100.00
34925;BME280;21130;51.728;8.748;2023-05-12T00:51:46;100381.84;;;10.00;100.00
34925;BME280;21130;51.728;8.748;2023-05-12T00:54:13;100387.63;;;9.99;100.00
34925;BME280;21130;51.728;8.748;2023-05-12T00:56:39;100387.88;;;9.97;100.00
34925;BME280;21130;51.728;8.748;2023-05-12T00:59:06;100388.38;;;9.94;100.00
34925;BME280;21130;51.728;8.748;2023-05-12T01:01:33;100396.06;;;9.92;100.00
34925;BME280;21130;51.728;8.748;2023-05-12T01:04:01;100404.88;;;9.89;100.00
34925;BME280;21130;51.728;8.748;2023-05-12T01:06:33;100403.94;;;9.83;100.00
34925;BME280;21130;51.728;8.748;2023-05-12T01:09:02;100405.25;;;9.81;100.00
34925;BME280;21130;51.728;8.748;2023-05-12T01:11:29;100406.94;;;9.82;100.00
34925;BME280;21130;51.728;8.748;2023-05-12T01:17:05;100404.06;;;9.77;100.00
34925;BME280;21130;51.728;8.748;2023-05-12T01:19:40;100412.13;;;9.78;100.00
34925;BME280;21130;51.728;8.748;2023-05-12T01:22:09;100404.78;;;9.72;100.00
34925;BME280;21130;51.728;8.748;2023-05-12T01:24:41;100408.88;;;9.69;100.00
34925;BME280;21130;51.728;8.748;2023-05-12T01:27:12;100404.53;;;9.73;100.00
34925;BME280;21130;51.728;8.748;2023-05-12T01:29:39;100404.28;;;9.75;100.00
34925;BME280;21130;51.728;8.748;2023-05-12T01:32:07;100406.59;;;9.78;100.00
34925;BME280;21130;51.728;8.748;2023-05-12T01:34:34;100405.25;;;9.81;100.00
34925;BME280;21130;51.728;8.748;2023-05-12T01:37:01;100406.72;;;9.83;100.00
34925;BME280;21130;51.728;8.748;2023-05-12T01:39:27;100404.28;;;9.87;100.00
34925;BME280;21130;51.728;8.748;2023-05-12T01:41:53;100408.63;;;9.83;100.00
34925;BME280;21130;51.728;8.748;2023-05-12T01:44:21;100408.88;;;9.81;100.00
34925;BME280;21130;51.728;8.748;2023-05-12T01:46:48;100410.31;;;9.84;100.00
34925;BME280;21130;51.728;8.748;2023-05-12T01:49:14;100414.75;;;9.85;100.00
34925;BME280;21130;51.728;8.748;2023-05-12T01:51:40;100410.53;;;9.94;100.00
34925;BME280;21130;51.728;8.748;2023-05-12T01:54:07;100412.00;;;9.97;100.00
34925;BME280;21130;51.728;8.748;2023-05-12T01:56:33;100408.94;;;9.98;100.00
34925;BME280;21130;51.728;8.748;2023-05-12T01:59:00;100413.31;;;9.94;100.00
34925;BME280;21130;51.728;8.748;2023-05-12T02:01:28;100408.50;;;10.01;100.00
34925;BME280;21130;51.728;8.748;2023-05-12T02:03:56;100416.81;;;10.01;100.00
34925;BME280;21130;51.728;8.748;2023-05-12T02:06:24;100414.50;;;9.98;100.00
34925;BME280;21130;51.728;8.748;2023-05-12T02:08:51;100418.47;;;10.02;100.00
34925;BME280;21130;51.728;8.748;2023-05-12T02:11:17;100420.19;;;10.03;100.00
34925;BME280;21130;51.728;8.748;2023-05-12T02:13:44;100420.41;;;10.02;100.00
34925;BME280;21130;51.728;8.748;2023-05-12T02:16:11;100417.66;;;10.02;100.00
34925;BME280;21130;51.728;8.748;2023-05-12T02:18:39;100417.53;;;9.97;100.00
34925;BME280;21130;51.728;8.748;2023-05-12T02:21:05;100419.09;;;9.92;100.00
34925;BME280;21130;51.728;8.748;2023-05-12T02:23:32;100424.28;;;9.89;100.00
34925;BME280;21130;51.728;8.748;2023-05-12T02:25:58;100422.59;;;9.88;100.00
34925;BME280;21130;51.728;8.748;2023-05-12T02:28:24;100422.25;;;9.84;100.00
34925;BME280;21130;51.728;8.748;2023-05-12T02:30:51;100423.81;;;9.80;100.00
34925;BME280;21130;51.728;8.748;2023-05-12T02:33:19;100424.91;;;9.79;100.00
34925;BME280;21130;51.728;8.748;2023-05-12T02:35:47;100416.47;;;9.74;100.00
34925;BME280;21130;51.728;8.748;2023-05-12T02:38:14;100422.84;;;9.74;100.00
34925;BME280;21130;51.728;8.748;2023-05-12T02:40:41;100419.72;;;9.71;100.00
34925;BME280;21130;51.728;8.748;2023-05-12T02:43:07;100414.66;;;9.68;100.00
34925;BME280;21130;51.728;8.748;2023-05-12T02:45:33;100418.75;;;9.65;100.00
34925;BME280;21130;51.728;8.748;2023-05-12T02:48:00;100419.34;;;9.67;100.00
34925;BME280;21130;51.728;8.748;2023-05-12T02:50:27;100419.97;;;9.69;100.00
34925;BME280;21130;51.728;8.748;2023-05-12T02:52:54;100423.22;;;9.66;100.00
34925;BME280;21130;51.728;8.748;2023-05-12T02:55:21;100410.44;;;9.65;100.00
34925;BME280;21130;51.728;8.748;2023-05-12T02:57:48;100416.56;;;9.67;100.00
34925;BME280;21130;51.728;8.748;2023-05-12T03:00:14;100420.06;;;9.63;100.00
34925;BME280;21130;51.728;8.748;2023-05-12T03:02:41;100412.25;;;9.60;100.00
34925;BME280;21130;51.728;8.748;2023-05-12T03:05:08;100419.72;;;9.59;100.00
34925;BME280;21130;51.728;8.748;2023-05-12T03:07:34;100414.19;;;9.59;100.00
34925;BME280;21130;51.728;8.748;2023-05-12T03:10:03;100421.03;;;9.57;100.00
34925;BME280;21130;51.728;8.748;2023-05-12T03:12:30;100416.22;;;9.52;100.00
34925;BME280;21130;51.728;8.748;2023-05-12T03:14:56;100425.13;;;9.54;100.00
34925;BME280;21130;51.728;8.748;2023-05-12T03:17:23;100411.78;;;9.51;100.00
34925;BME280;21130;51.728;8.748;2023-05-12T03:19:49;100413.44;;;9.52;100.00
34925;BME280;21130;51.728;8.748;2023-05-12T03:22:16;100410.44;;;9.54;100.00
34925;BME280;21130;51.728;8.748;2023-05-12T03:24:42;100417.31;;;9.51;100.00
34925;BME280;21130;51.728;8.748;2023-05-12T03:27:10;100419.25;;;9.50;100.00
34925;BME280;21130;51.728;8.748;2023-05-12T03:29:37;100420.09;;;9.51;100.00
34925;BME280;21130;51.728;8.748;2023-05-12T03:32:03;100408.41;;;9.49;100.00
34925;BME280;21130;51.728;8.748;2023-05-12T03:34:30;100411.28;;;9.54;100.00
34925;BME280;21130;51.728;8.748;2023-05-12T03:36:56;100417.44;;;9.56;100.00
34925;BME280;21130;51.728;8.748;2023-05-12T03:39:23;100414.66;;;9.56;100.00
34925;BME280;21130;51.728;8.748;2023-05-12T03:41:49;100409.72;;;9.58;100.00
34925;BME280;21130;51.728;8.748;2023-05-12T03:44:17;100421.78;;;9.64;100.00
34925;BME280;21130;51.728;8.748;2023-05-12T03:46:44;100418.16;;;9.63;100.00
34925;BME280;21130;51.728;8.748;2023-05-12T03:49:10;100414.78;;;9.61;100.00
34925;BME280;21130;51.728;8.748;2023-05-12T03:51:36;100416.56;;;9.67;100.00
34925;BME280;21130;51.728;8.748;2023-05-12T03:54:03;100411.16;;;9.72;100.00
34925;BME280;21130;51.728;8.748;2023-05-12T03:56:29;100420.06;;;9.74;100.00
34925;BME280;21130;51.728;8.748;2023-05-12T03:58:56;100422.25;;;9.72;100.00
34925;BME280;21130;51.728;8.748;2023-05-12T04:01:24;100424.19;;;9.72;100.00
34925;BME280;21130;51.728;8.748;2023-05-12T04:03:50;100422.63;;;9.76;100.00
34925;BME280;21130;51.728;8.748;2023-05-12T04:06:16;100417.66;;;9.90;100.00
34925;BME280;21130;51.728;8.748;2023-05-12T04:08:43;100416.31;;;9.92;100.00
34925;BME280;21130;51.728;8.748;2023-05-12T04:11:09;100421.53;;;9.89;100.00
34925;BME280;21130;51.728;8.748;2023-05-12T04:13:38;100425.00;;;9.96;100.00
34925;BME280;21130;51.728;8.748;2023-05-12T04:16:05;100427.28;;;9.99;100.00
34925;BME280;21130;51.728;8.748;2023-05-12T04:18:32;100431.28;;;10.03;100.00
34925;BME280;21130;51.728;8.748;2023-05-12T04:20:59;100435.00;;;10.09;100.00
34925;BME280;21130;51.728;8.748;2023-05-12T04:23:26;100437.28;;;10.12;100.00
34925;BME280;21130;51.728;8.748;2023-05-12T04:25:55;100439.31;;;10.16;100.00
34925;BME280;21130;51.728;8.748;2023-05-12T04:28:21;100435.81;;;10.21;100.00
34925;BME280;21130;51.728;8.748;2023-05-12T04:30:47;100442.31;;;10.27;100.00
34925;BME280;21130;51.728;8.748;2023-05-12T04:33:14;100446.56;;;10.29;100.00
34925;BME280;21130;51.728;8.748;2023-05-12T04:35:42;100448.59;;;10.34;100.00
34925;BME280;21130;51.728;8.748;2023-05-12T04:38:08;100447.28;;;10.36;100.00
34925;BME280;21130;51.728;8.748;2023-05-12T04:40:34;100444.59;;;10.42;100.00
34925;BME280;21130;51.728;8.748;2023-05-12T04:43:01;100445.22;;;10.44;100.00
34925;BME280;21130;51.728;8.748;2023-05-12T04:45:27;100459.41;;;10.47;100.00
34925;BME280;21130;51.728;8.748;2023-05-12T04:47:54;100462.31;;;10.52;100.00
34925;BME280;21130;51.728;8.748;2023-05-12T04:50:20;100461.06;;;10.60;100.00
34925;BME280;21130;51.728;8.748;2023-05-12T04:52:48;100464.22;;;10.64;100.00
34925;BME280;21130;51.728;8.748;2023-05-12T04:55:14;100473.47;;;10.69;100.00
34925;BME280;21130;51.728;8.748;2023-05-12T04:57:41;100476.59;;;10.73;100.00
34925;BME280;21130;51.728;8.748;2023-05-12T05:00:08;100478.91;;;10.76;100.00
34925;BME280;21130;51.728;8.748;2023-05-12T05:02:35;100482.25;;;10.78;100.00
34925;BME280;21130;51.728;8.748;2023-05-12T05:05:01;100484.66;;;10.86;100.00
34925;BME280;21130;51.728;8.748;2023-05-12T05:07:28;100488.09;;;10.93;100.00
34925;BME280;21130;51.728;8.748;2023-05-12T05:10:16;100487.84;;;10.95;100.00
34925;BME280;21130;51.728;8.748;2023-05-12T05:13:00;100489.28;;;10.97;100.00
34925;BME280;21130;51.728;8.748;2023-05-12T05:15:29;100493.59;;;11.05;100.00
34925;BME280;21130;51.728;8.748;2023-05-12T05:17:55;100506.16;;;11.08;100.00
34925;BME280;21130;51.728;8.748;2023-05-12T05:20:22;100503.94;;;11.21;100.00
34925;BME280;21130;51.728;8.748;2023-05-12T05:22:48;100513.78;;;11.29;100.00
34925;BME280;21130;51.728;8.748;2023-05-12T05:25:16;100509.03;;;11.41;100.00
34925;BME280;21130;51.728;8.748;2023-05-12T05:27:42;100512.97;;;11.45;100.00
34925;BME280;21130;51.728;8.748;2023-05-12T05:30:09;100518.03;;;11.49;100.00
34925;BME280;21130;51.728;8.748;2023-05-12T05:32:36;100516.09;;;11.49;100.00
34925;BME280;21130;51.728;8.748;2023-05-12T05:35:05;100516.44;;;11.53;100.00
34925;BME280;21130;51.728;8.748;2023-05-12T05:37:32;100527.06;;;11.73;100.00
34925;BME280;21130;51.728;8.748;2023-05-12T05:39:58;100522.19;;;11.80;100.00
34925;BME280;21130;51.728;8.748;2023-05-12T05:42:26;100522.69;;;11.94;100.00
34925;BME280;21130;51.728;8.748;2023-05-12T05:44:52;100523.97;;;12.03;100.00
34925;BME280;21130;51.728;8.748;2023-05-12T05:47:19;100519.06;;;12.10;100.00
34925;BME280;21130;51.728;8.748;2023-05-12T05:49:45;100514.03;;;12.07;100.00
34925;BME280;21130;51.728;8.748;2023-05-12T05:52:11;100523.19;;;12.24;100.00
34925;BME280;21130;51.728;8.748;2023-05-12T05:54:38;100526.97;;;12.35;100.00
34925;BME280;21130;51.728;8.748;2023-05-12T05:57:05;100525.00;;;12.36;100.00
34925;BME280;21130;51.728;8.748;2023-05-12T05:59:34;100530.41;;;12.42;100.00
34925;BME280;21130;51.728;8.748;2023-05-12T06:02:00;100529.38;;;12.48;100.00
34925;BME280;21130;51.728;8.748;2023-05-12T06:04:27;100525.28;;;12.56;100.00
34925;BME280;21130;51.728;8.748;2023-05-12T06:06:54;100533.16;;;12.59;100.00
34925;BME280;21130;51.728;8.748;2023-05-12T06:09:20;100528.81;;;12.68;100.00
34925;BME280;21130;51.728;8.748;2023-05-12T06:11:47;100536.72;;;12.77;100.00
34925;BME280;21130;51.728;8.748;2023-05-12T06:14:13;100534.00;;;12.82;100.00
34925;BME280;21130;51.728;8.748;2023-05-12T06:16:41;100539.22;;;13.00;100.00
34925;BME280;21130;51.728;8.748;2023-05-12T06:19:07;100553.47;;;13.04;100.00
34925;BME280;21130;51.728;8.748;2023-05-12T06:21:34;100547.53;;;13.17;100.00
34925;BME280;21130;51.728;8.748;2023-05-12T06:24:00;100543.75;;;13.28;100.00
34925;BME280;21130;51.728;8.748;2023-05-12T06:26:27;100545.75;;;13.33;100.00
34925;BME280;21130;51.728;8.748;2023-05-12T06:28:54;100551.69;;;13.42;100.00
34925;BME280;21130;51.728;8.748;2023-05-12T06:31:21;100552.63;;;13.47;100.00
34925;BME280;21130;51.728;8.748;2023-05-12T06:33:48;100555.81;;;13.61;100.00
34925;BME280;21130;51.728;8.748;2023-05-12T06:36:15;100556.81;;;13.77;100.00
34925;BME280;21130;51.728;8.748;2023-05-12T06:38:41;100552.69;;;13.85;100.00
34925;BME280;21130;51.728;8.748;2023-05-12T06:41:08;100552.16;;;13.88;100.00
34925;BME280;21130;51.728;8.748;2023-05-12T06:43:34;100557.78;;;13.93;100.00
34925;BME280;21130;51.728;8.748;2023-05-12T06:46:00;100557.69;;;14.15;100.00
34925;BME280;21130;51.728;8.748;2023-05-12T06:48:27;100556.34;;;14.22;100.00
34925;BME280;21130;51.728;8.748;2023-05-12T06:50:55;100549.41;;;14.30;100.00
34925;BME280;21130;51.728;8.748;2023-05-12T06:53:21;100553.34;;;14.34;100.00
34925;BME280;21130;51.728;8.748;2023-05-12T06:55:47;100555.84;;;14.31;100.00
34925;BME280;21130;51.728;8.748;2023-05-12T06:58:15;100546.94;;;14.39;100.00
34925;BME280;21130;51.728;8.748;2023-05-12T07:00:43;100548.34;;;14.41;100.00
34925;BME280;21130;51.728;8.748;2023-05-12T07:03:09;100550.06;;;14.42;100.00
34925;BME280;21130;51.728;8.748;2023-05-12T07:05:35;100538.19;;;14.62;100.00
34925;BME280;21130;51.728;8.748;2023-05-12T07:08:04;100539.63;;;14.70;100.00
34925;BME280;21130;51.728;8.748;2023-05-12T07:10:30;100544.19;;;14.91;100.00
34925;BME280;21130;51.728;8.748;2023-05-12T07:12:57;100539.78;;;15.06;100.00
34925;BME280;21130;51.728;8.748;2023-05-12T07:15:23;100539.84;;;15.31;100.00
34925;BME280;21130;51.728;8.748;2023-05-12T07:17:50;100535.41;;;15.41;100.00
34925;BME280;21130;51.728;8.748;2023-05-12T07:20:17;100541.88;;;15.62;100.00
34925;BME280;21130;51.728;8.748;2023-05-12T07:22:43;100527.91;;;15.72;100.00
34925;BME280;21130;51.728;8.748;2023-05-12T07:25:11;100531.56;;;16.03;100.00
34925;BME280;21130;51.728;8.748;2023-05-12T07:27:38;100528.75;;;16.29;100.00
34925;BME280;21130;51.728;8.748;2023-05-12T07:30:05;100534.00;;;16.56;100.00
34925;BME280;21130;51.728;8.748;2023-05-12T07:32:32;100530.56;;;16.90;100.00
34925;BME280;21130;51.728;8.748;2023-05-12T07:34:59;100536.97;;;16.95;100.00
34925;BME280;21130;51.728;8.748;2023-05-12T07:37:26;100534.22;;;17.40;100.00
34925;BME280;21130;51.728;8.748;2023-05-12T07:39:52;100539.84;;;17.40;100.00
34925;BME280;21130;51.728;8.748;2023-05-12T07:42:20;100541.03;;;17.73;100.00
34925;BME280;21130;51.728;8.748;2023-05-12T07:44:47;100539.31;;;17.77;100.00
34925;BME280;21130;51.728;8.748;2023-05-12T07:47:14;100541.75;;;17.94;100.00
34925;BME280;21130;51.728;8.748;2023-05-12T07:49:40;100537.03;;;17.84;100.00
34925;BME280;21130;51.728;8.748;2023-05-12T07:52:07;100543.63;;;18.04;100.00
34925;BME280;21130;51.728;8.748;2023-05-12T07:54:33;100547.69;;;17.87;100.00
34925;BME280;21130;51.728;8.748;2023-05-12T07:57:00;100549.38;;;17.88;100.00
34925;BME280;21130;51.728;8.748;2023-05-12T07:59:27;100542.09;;;17.82;100.00
34925;BME280;21130;51.728;8.748;2023-05-12T08:01:54;100534.09;;;18.00;100.00
34925;BME280;21130;51.728;8.748;2023-05-12T08:04:20;100543.28;;;18.10;100.00
34925;BME280;21130;51.728;8.748;2023-05-12T08:06:47;100547.03;;;17.96;100.00
34925;BME280;21130;51.728;8.748;2023-05-12T08:09:13;100540.97;;;18.18;100.00
34925;BME280;21130;51.728;8.748;2023-05-12T08:11:40;100541.22;;;18.21;100.00
34925;BME280;21130;51.728;8.748;2023-05-12T08:14:06;100534.47;;;18.51;100.00
34925;BME280;21130;51.728;8.748;2023-05-12T08:16:34;100540.34;;;19.03;100.00
34925;BME280;21130;51.728;8.748;2023-05-12T08:19:00;100538.03;;;19.29;100.00
34925;BME280;21130;51.728;8.748;2023-05-12T08:21:27;100533.22;;;19.11;100.00
34925;BME280;21130;51.728;8.748;2023-05-12T08:23:54;100534.00;;;18.92;100.00
34925;BME280;21130;51.728;8.748;2023-05-12T08:26:20;100545.22;;;18.44;100.00
34925;BME280;21130;51.728;8.748;2023-05-12T08:28:47;100542.66;;;18.72;100.00
34925;BME280;21130;51.728;8.748;2023-05-12T08:31:13;100535.53;;;18.55;100.00
34925;BME280;21130;51.728;8.748;2023-05-12T08:33:41;100541.75;;;18.82;100.00
34925;BME280;21130;51.728;8.748;2023-05-12T08:36:08;100529.72;;;18.71;100.00
34925;BME280;21130;51.728;8.748;2023-05-12T08:38:34;100539.13;;;18.61;100.00
34925;BME280;21130;51.728;8.748;2023-05-12T08:41:10;100537.31;;;18.99;100.00
34925;BME280;21130;51.728;8.748;2023-05-12T08:43:41;100527.41;;;19.26;100.00
34925;BME280;21130;51.728;8.748;2023-05-12T08:46:08;100537.38;;;19.56;100.00
34925;BME280;21130;51.728;8.748;2023-05-12T08:48:37;100541.03;;;19.76;100.00
34925;BME280;21130;51.728;8.748;2023-05-12T08:51:07;100541.75;;;20.00;100.00
34925;BME280;21130;51.728;8.748;2023-05-12T08:53:36;100539.03;;;20.28;100.00
34925;BME280;21130;51.728;8.748;2023-05-12T08:56:05;100544.75;;;20.56;100.00
34925;BME280;21130;51.728;8.748;2023-05-12T08:58:33;100541.03;;;20.74;100.00
34925;BME280;21130;51.728;8.748;2023-05-12T09:01:01;100535.59;;;20.31;100.00
34925;BME280;21130;51.728;8.748;2023-05-12T09:03:29;100544.38;;;20.29;100.00
34925;BME280;21130;51.728;8.748;2023-05-12T09:05:57;100544.00;;;20.50;100.00
34925;BME280;21130;51.728;8.748;2023-05-12T09:08:28;100536.72;;;20.63;100.00
34925;BME280;21130;51.728;8.748;2023-05-12T09:10:55;100539.50;;;20.49;100.00
34925;BME280;21130;51.728;8.748;2023-05-12T09:13:27;100531.41;;;20.89;100.00
34925;BME280;21130;51.728;8.748;2023-05-12T09:15:56;100536.22;;;21.66;100.00
34925;BME280;21130;51.728;8.748;2023-05-12T09:18:32;100535.41;;;22.11;89.71
34925;BME280;21130;51.728;8.748;2023-05-12T09:21:07;100525.91;;;22.29;91.99
34925;BME280;21130;51.728;8.748;2023-05-12T09:23:35;100527.50;;;22.75;88.58
34925;BME280;21130;51.728;8.748;2023-05-12T09:26:02;100525.34;;;23.29;87.12
34925;BME280;21130;51.728;8.748;2023-05-12T09:28:34;100524.06;;;23.53;82.00
34925;BME280;21130;51.728;8.748;2023-05-12T09:31:01;100519.91;;;24.03;78.76
34925;BME280;21130;51.728;8.748;2023-05-12T09:33:33;100517.16;;;24.50;73.02
34925;BME280;21130;51.728;8.748;2023-05-12T09:36:00;100507.03;;;25.38;63.17
34925;BME280;21130;51.728;8.748;2023-05-12T09:38:26;100512.75;;;26.01;58.35
34925;BME280;21130;51.728;8.748;2023-05-12T09:40:54;100509.94;;;26.13;52.06
34925;BME280;21130;51.728;8.748;2023-05-12T09:43:20;100513.56;;;25.59;51.66
34925;BME280;21130;51.728;8.748;2023-05-12T09:45:47;100516.13;;;25.52;49.69
34925;BME280;21130;51.728;8.748;2023-05-12T09:48:15;100505.06;;;25.38;55.81
34925;BME280;21130;51.728;8.748;2023-05-12T09:50:43;100517.31;;;24.92;53.25
34925;BME280;21130;51.728;8.748;2023-05-12T09:53:10;100509.28;;;24.94;51.51
34925;BME280;21130;51.728;8.748;2023-05-12T09:55:36;100512.19;;;24.29;52.69
34925;BME280;21130;51.728;8.748;2023-05-12T09:58:08;100507.72;;;24.75;50.12
34925;BME280;21130;51.728;8.748;2023-05-12T10:00:35;100516.38;;;24.14;49.62
34925;BME280;21130;51.728;8.748;2023-05-12T10:03:08;100516.19;;;24.28;50.06
34925;BME280;21130;51.728;8.748;2023-05-12T10:05:37;100506.22;;;23.53;54.10
34925;BME280;21130;51.728;8.748;2023-05-12T10:08:09;100515.22;;;23.72;51.52
34925;BME280;21130;51.728;8.748;2023-05-12T10:10:38;100515.06;;;23.68;56.51
34925;BME280;21130;51.728;8.748;2023-05-12T10:13:06;100513.25;;;23.99;56.24
34925;BME280;21130;51.728;8.748;2023-05-12T10:15:38;100508.44;;;23.73;54.30
34925;BME280;21130;51.728;8.748;2023-05-12T10:18:06;100506.19;;;23.70;61.81
34925;BME280;21130;51.728;8.748;2023-05-12T10:20:35;100512.91;;;23.91;56.70
34925;BME280;21130;51.728;8.748;2023-05-12T10:23:02;100513.22;;;24.07;52.86
34925;BME280;21130;51.728;8.748;2023-05-12T10:25:29;100509.31;;;24.55;54.82
34925;BME280;21130;51.728;8.748;2023-05-12T10:28:00;100502.63;;;24.51;54.86
34925;BME280;21130;51.728;8.748;2023-05-12T10:30:29;100501.81;;;24.89;49.44
34925;BME280;21130;51.728;8.748;2023-05-12T10:32:56;100511.88;;;24.78;54.62
34925;BME280;21130;51.728;8.748;2023-05-12T10:35:30;100503.44;;;24.90;53.38
34925;BME280;21130;51.728;8.748;2023-05-12T10:38:00;100513.97;;;24.90;53.58
34925;BME280;21130;51.728;8.748;2023-05-12T10:40:27;100507.47;;;24.89;53.17
34925;BME280;21130;51.728;8.748;2023-05-12T10:42:57;100500.13;;;25.48;52.33
34925;BME280;21130;51.728;8.748;2023-05-12T10:45:25;100504.19;;;24.78;52.06
34925;BME280;21130;51.728;8.748;2023-05-12T10:48:03;100502.53;;;25.07;53.08
34925;BME280;21130;51.728;8.748;2023-05-12T10:50:30;100511.47;;;24.50;53.06
34925;BME280;21130;51.728;8.748;2023-05-12T10:52:56;100497.66;;;24.48;48.10
34925;BME280;21130;51.728;8.748;2023-05-12T10:55:30;100502.00;;;24.20;49.44
34925;BME280;21130;51.728;8.748;2023-05-12T10:58:03;100502.19;;;24.23;49.97
34925;BME280;21130;51.728;8.748;2023-05-12T11:00:31;100486.25;;;24.57;48.86
34925;BME280;21130;51.728;8.748;2023-05-12T11:03:01;100485.47;;;24.77;49.90
34925;BME280;21130;51.728;8.748;2023-05-12T11:05:32;100491.91;;;24.95;50.78
34925;BME280;21130;51.728;8.748;2023-05-12T11:07:59;100491.88;;;23.92;51.08
34925;BME280;21130;51.728;8.748;2023-05-12T11:10:27;100493.75;;;22.88;51.34
34925;BME280;21130;51.728;8.748;2023-05-12T11:12:54;100495.66;;;22.70;56.33
34925;BME280;21130;51.728;8.748;2023-05-12T11:15:21;100501.31;;;22.07;60.74
34925;BME280;21130;51.728;8.748;2023-05-12T11:17:48;100495.81;;;21.79;66.79
34925;BME280;21130;51.728;8.748;2023-05-12T11:20:22;100501.47;;;21.29;66.32
34925;BME280;21130;51.728;8.748;2023-05-12T11:22:49;100491.97;;;21.11;76.09
34925;BME280;21130;51.728;8.748;2023-05-12T11:25:16;100494.31;;;20.68;78.65
34925;BME280;21130;51.728;8.748;2023-05-12T11:27:45;100486.78;;;20.63;82.50
34925;BME280;21130;51.728;8.748;2023-05-12T11:30:13;100486.75;;;20.36;98.43
34925;BME280;21130;51.728;8.748;2023-05-12T11:32:40;100492.28;;;20.27;91.57
34925;BME280;21130;51.728;8.748;2023-05-12T11:35:07;100503.66;;;20.22;90.82
34925;BME280;21130;51.728;8.748;2023-05-12T11:37:37;100505.28;;;20.09;97.43
34925;BME280;21130;51.728;8.748;2023-05-12T11:40:12;100502.84;;;19.70;100.00
34925;BME280;21130;51.728;8.748;2023-05-12T11:42:38;100504.88;;;19.45;97.59
34925;BME280;21130;51.728;8.748;2023-05-12T11:45:18;100500.22;;;19.35;94.36
34925;BME280;21130;51.728;8.748;2023-05-12T11:47:45;100503.59;;;19.37;98.61
34925;BME280;21130;51.728;8.748;2023-05-12T11:50:19;100510.34;;;19.17;100.00
34925;BME280;21130;51.728;8.748;2023-05-12T11:52:47;100515.00;;;19.27;100.00
34925;BME280;21130;51.728;8.748;2023-05-12T11:55:19;100515.28;;;19.26;95.31
34925;BME280;21130;51.728;8.748;2023-05-12T11:57:55;100519.53;;;19.23;100.00
34925;BME280;21130;51.728;8.748;2023-05-12T12:00:26;100526.53;;;19.26;100.00
34925;BME280;21130;51.728;8.748;2023-05-12T12:03:04;100516.72;;;19.23;100.00
34925;BME280;21130;51.728;8.748;2023-05-12T12:05:30;100523.94;;;19.10;100.00
34925;BME280;21130;51.728;8.748;2023-05-12T12:08:08;100520.28;;;19.10;100.00
34925;BME280;21130;51.728;8.748;2023-05-12T12:10:34;100526.53;;;19.07;100.00
34925;BME280;21130;51.728;8.748;2023-05-12T12:13:04;100523.31;;;19.13;100.00
34925;BME280;21130;51.728;8.748;2023-05-12T12:15:31;100524.03;;;19.24;100.00
34925;BME280;21130;51.728;8.748;2023-05-12T12:17:57;100531.34;;;19.44;100.00
34925;BME280;21130;51.728;8.748;2023-05-12T12:20:24;100530.69;;;19.71;94.39
34925;BME280;21130;51.728;8.748;2023-05-12T12:22:51;100527.22;;;19.93;93.02
34925;BME280;21130;51.728;8.748;2023-05-12T12:25:20;100533.00;;;20.35;87.87
34925;BME280;21130;51.728;8.748;2023-05-12T12:27:47;100531.50;;;21.11;76.79
34925;BME280;21130;51.728;8.748;2023-05-12T12:30:14;100537.88;;;21.45;73.35
34925;BME280;21130;51.728;8.748;2023-05-12T12:32:41;100542.28;;;21.96;70.51
34925;BME280;21130;51.728;8.748;2023-05-12T12:35:08;100555.72;;;22.35;68.81
34925;BME280;21130;51.728;8.748;2023-05-12T12:37:36;100558.56;;;21.26;64.44
34925;BME280;21130;51.728;8.748;2023-05-12T12:40:03;100574.47;;;20.48;65.17
34925;BME280;21130;51.728;8.748;2023-05-12T12:42:35;100583.81;;;19.78;70.67
34925;BME280;21130;51.728;8.748;2023-05-12T12:45:02;100609.97;;;19.16;70.17
34925;BME280;21130;51.728;8.748;2023-05-12T12:47:28;100626.41;;;18.46;91.19
34925;BME280;21130;51.728;8.748;2023-05-12T12:49:55;100653.28;;;17.78;100.00